KFOA

Flora Municipal Airport

Flora, Illinois, USA
METAR KFOA 141155Z AUTO 06004KT 4SM -RA OVC017 09/09 A3007 RMK AO2 P0002 60010 70055 T00900085 10100 20085
Observed Flight Rules
Dec-14 @ 11:55 UTC (25 minutes ago) Marginal Visual Flight Rules
Wind Visibility Clouds Conditions
60° at 4 knots 4 miles
  • Overcast at 1,700' AGL
  • Light Rain
Temperatures Readings Precipitation
Current 9°C / 48°F
Dewpoint 9°C / 48°F
Humidity 100%
Altimeter 30.07" Hg
Pressure 1018 hPa
Elevation 144
Current Rain 0.02
METAR KFOA 141155Z AUTO 06004KT 4SM -RA OVC017 09/09 A3007 RMK AO2 P0002 60010 70055 T00900085 10100 20085
Observed Flight Rules
Dec-14 @ 11:55 UTC
(25 minutes ago)
MVFR
Wind Visibility
60° at 4 knots 4 miles
Clouds
  • Overcast at 1,700' AGL
Conditions
  • Light Rain
Temperature Dewpoint
9°C / 48°F 9°C / 48°F
Humidity Altimeter Pressure
100% 30.07" Hg 1018 hPa
Current Rain
0.02